This site, now in its 15th season, is a labour of love and fun from one of Ottawa's most avid time trialists and number crunchers. It adheres to and is permitted by the laws of Canada, promotes the objectives of every bicycle club whose results are shown, and is donated free of charge by myself for your enjoyment and usage. If you would like results from series you ride in to be shown here, give me (celia@drmath.ca) a shout!


Index Page
ATT OTT WTT AATT CFCTT VVVTT
Help resultformat:
Case-sensitive

OBC Open TT Series - 1992-Apr-23 - 15km (Rockliffe Pkwy) (EvtFactor = 0.9841)

Weather (18:00): Cloudy. Temp.: 11.0C, Humidity: 57%, DewPoint: 2.8C, Wind: W 7km/h, Pressure: 100.34kPa, Visibility: 32.2km.
Weather (19:00): Cloudy. Temp.: 10.6C, Humidity: 58%, DewPoint: 2.8C, Wind: WNW 7km/h, Pressure: 100.34kPa, Visibility: 32.2km.
Weather (20:00): Cloudy. Temp.: 10.1C, Humidity: 58%, DewPoint: 2.3C, Wind: W 7km/h, Pressure: 100.34kPa, Visibility: 25.0km.

Send photos with description (when/where/what) of yourself on or off of bike to celia@drmath.ca

 
 

BESTS?
 
1 Large, John --- 21:30 41.860 1/48 OSEM 1/20  
2 Lacourcière, Bernie --- 21:33 41.763 2/48 OSEM 2/20  
3 Georgas, Chris OBC 21:52 41.159 3/48 OVAM 1/8  
4 Smith, Ed --- 21:59 40.940 4/48 OSEM 3/20  
5 Hellard, Rick OBC 22:00 40.909 5/48 OSEM 4/20 1.2059
6 Roy, Eric --- 22:01 40.878 6/48 OSEM 5/20 1.2579
7 Cowan, Norman  OBC 22:06 40.724 7/48 OVAM 2/8  
8 Statchuk, Craig OBC 22:08 40.663 8/48 OSEM 6/20  
9 Plaunt, Grahame OBC 22:16 40.419 9/48 OSEM 7/20 1.1680
10 Brown, Geoffrey --- 22:17 40.389 10/48 OVAM 3/8  
Y 11 Moerman, Bram  OBC 22:25 40.149 11/48 OVBM 1/4 1.4405
12 Martignago, Mike OBC 22:27 40.089 12/48 OSEM 8/20  
13 Burge, Craig  OBC 22:30 40.000 13/48 OSEM 9/20 1.1810
14 Hinz, Richard OBC 22:41 39.677 14/48 OVAM 4/8 1.2472
15 Serviss, Terry OBC 22:59 39.159 15/48 OSEM 10/20 1.1458
16 St-Amour, Pierre OBC 23:02 39.074 16/48 OVAM 5/8 1.4273
17 Corbeil, Denis --- 23:12 38.793 17/48 OSEM 11/20  
18 Budd, Daniel & Chiarelli, Marc & Fraser, Ian OBC 23:13 38.765 18/48 TTT 1/1  
19 Campbell, Colin  OBC 23:24 38.462 19/48 OSEM 12/20 1.3145
Y 20 Georgas, Jim OBC 23:35 38.163 20/48 G64M 1/1  
21 Ford, Allen OBC 23:38 38.082 21/48 OSEM 13/20 1.2636
22 Schultz, Jay OBC 24:00 37.500 22/48 OSEM 14/20 1.2985
23 Leroux, Paul --- 24:01 37.474 23/48 OSEM 15/20 1.3182
24 Leblanc, Todd OBC 24:32 36.685 24/48 OSEM 16/20 1.3779
25 Jensen, Prapti OBC 24:42 36.437 25/48 OSEF 1/4  
26 Austen, Ian  OBC 25:02 35.952 26/48 OVAM 6/8  
27 Turcotte, Ben OBC 25:13 35.691 28/48 OSEM 17/20  
28 Morvan, Jacques  OBC 25:16 35.620 29/48 OVBM 2/4  
29 Pomeroy, Steve OBC 25:17 35.597 30/48 OSEM 18/20  
30 Montpetit, Stephane OBC 25:27 35.363 31/48 OJUM 1/3  
31 Black, Chloe --- 25:35 35.179 32/48 OSEF 2/4  
32 Dueck, Jon OBC 25:43 34.997 33/48 OSEM 19/20 1.4021
33 Allen, Brent OBC 25:45 34.951 34/48 OSEM 20/20 1.3157
34 Findlay, Janet --- 25:46 34.929 35/48 OSEF 3/4  
35 Hiscocks, Roger OBC 25:48 34.884 36/48 OVBM 3/4  
36 Ménard, Monique OBC 25:53 34.771 37/48 OSEF 4/4 1.3280
37 Bryson, Alex OBC 25:58 34.660 38/48 OJUM 2/3  
s 38 McInnis, Celia  OBC 26:12 34.351 39/48 OVAF 1/2 1.3374
39 Hollywood, Rudy OBC 26:16 34.264 40/48 OVBM 4/4  
40 Moquin, Bruce OBC 26:37 33.813 41/48 OJUM 3/3 1.5120
41 Somogyi, Michel OBC 26:47 33.603 42/48 OCAM 1/2  
42 Imbrogno, Giorgio  OBC 27:37 32.589 43/48 OVAM 7/8  
43 Montserrat, Fabienne OBC 27:44 32.452 44/48 OVAF 2/2 1.6493
Y 44 Hiscocks, Mark OBC 28:05 32.047 45/48 OMIM 1/1  
45 Hope, Walter OBC 28:31 31.560 46/48 OVAM 8/8 1.3202
46 Bossio, Angelo --- 37:00 24.324 47/48 OCAM 2/2  
 
Average Speed of all of the above 46 finishes (690km in 18:51:35):36.586
>>>Average of the Average Speeds for these 46 finishes36.952<<<
 

The number of data records shown above is 46
The server processing of your query took: 1 wallclock secs ( 0.07 usr + 0.00 sys = 0.07 CPU)

Thanks to our Helpers: Denis Fairhead, Jim Glover, Colin Kemball, John Rou

     


Apr 17 (Good Friday) Apr 21
  Apr 23  
Apr 30
May 5 May 5 (10km) May 7 May 9 (22km) May 12 May 12 (10km) May 14 (40km) May 19 May 19 (10km) May 26 May 26 (10km)
Jun 2 Jun 2 Jun 9 Jun 9 Jun 16 Jun 16 Jun 23 Jun 23 Jun 30 Jun 30
Jul 7 Jul 7 Jul 14 Jul 14 Jul 21 Jul 21 Jul 28
Aug 4 (cancelled - Rained Out!) Aug 11 Aug 11 Aug 18 Aug 18 Aug 25#1 Aug 25#2 Aug 25 (Invitational)
Sep 8 Sep 15 Sep 22

OTT Rankings
Best       Best by category
WTT Rankings for OBC Members
5 Best 15km     5 Best 15km by category
OBC Member Best Three 15km Rankings
Overall     by category
OBC BAR Ranking
Overall     by category     Rider "Consistency-Graph"
ABC BAR Ranking
Overall     by category     Rider "Consistency-Graph"
Other years
TT Calculator All TT People All TT events
ABC Home VVV Home
CKAP GOLD MEDAL
Other Links

Please send your comments and suggestions to: Celia McInnis
Copyright © 1998-2011 Celia McInnis. All rights reserved. Links are welcomed.